Time;durP1;ratioP1;P1;durP2;ratioP2;P2;SDS_P1;SDS_P2;PMS_P1;PMS_P2;Temp;Humidity;BMP_temperature;BMP_pressure;BME280_temperature;BME280_humidity;BME280_pressure;Samples;Min_cycle;Max_cycle;Signal;HPM_P1;HPM_P2
2023/04/17 00:01:49;;;;;;;14.07;12.60;;;9.50;99.90;;;;;;4958858;28;20125;-54
2023/04/17 00:04:37;;;;;;;14.45;12.93;;;9.50;99.90;;;;;;4966172;28;20016;-52
2023/04/17 00:07:23;;;;;;;15.75;13.23;;;9.50;99.90;;;;;;4964721;28;20041;-58
2023/04/17 00:10:10;;;;;;;13.75;12.32;;;9.60;99.90;;;;;;4971058;28;20034;-57
2023/04/17 00:12:56;;;;;;;14.05;12.55;;;9.60;99.90;;;;;;4969041;28;20058;-52
2023/04/17 00:15:42;;;;;;;13.52;12.15;;;9.60;99.90;;;;;;4962852;28;20046;-56
2023/04/17 00:18:28;;;;;;;13.20;11.82;;;9.50;99.90;;;;;;4972648;28;20432;-53
2023/04/17 00:21:14;;;;;;;14.55;13.05;;;9.30;99.90;;;;;;4968808;28;20034;-52
2023/04/17 00:24:00;;;;;;;13.43;11.98;;;9.40;99.90;;;;;;4971105;28;20027;-55
2023/04/17 00:26:46;;;;;;;13.93;12.13;;;9.30;99.90;;;;;;4971053;28;20491;-57
2023/04/17 00:29:33;;;;;;;15.85;11.77;;;9.30;99.90;;;;;;4976311;28;20484;-56
2023/04/17 00:32:19;;;;;;;14.02;12.60;;;9.30;99.90;;;;;;4965955;28;20027;-54
2023/04/17 00:35:05;;;;;;;14.77;12.63;;;9.30;99.90;;;;;;4970692;28;20408;-56
2023/04/17 00:37:51;;;;;;;15.40;11.90;;;9.30;99.90;;;;;;4950097;28;20038;-57
2023/04/17 00:40:37;;;;;;;14.93;12.50;;;9.20;99.90;;;;;;4969179;28;20385;-55
2023/04/17 00:43:23;;;;;;;13.82;12.43;;;9.30;99.90;;;;;;4967061;28;20506;-57
2023/04/17 00:46:09;;;;;;;19.55;15.70;;;9.20;99.90;;;;;;4983232;28;20049;-58
2023/04/17 00:48:55;;;;;;;17.25;14.13;;;9.10;99.90;;;;;;4978148;28;20085;-56
2023/04/17 00:51:41;;;;;;;13.63;11.65;;;9.20;99.90;;;;;;4978311;28;20492;-56
2023/04/17 00:54:27;;;;;;;17.17;12.25;;;9.20;99.90;;;;;;4974167;28;20071;-57
2023/04/17 00:57:13;;;;;;;13.02;11.57;;;9.20;99.90;;;;;;4971145;28;20050;-55
2023/04/17 01:00:00;;;;;;;12.95;11.35;;;9.20;99.90;;;;;;4971663;28;20033;-57
2023/04/17 01:02:46;;;;;;;14.93;11.88;;;9.00;99.90;;;;;;4991012;28;20018;-57
2023/04/17 01:05:34;;;;;;;12.90;11.50;;;9.10;99.90;;;;;;4974502;28;20513;-59
2023/04/17 01:08:21;;;;;;;13.63;12.20;;;9.10;99.90;;;;;;4970265;28;20039;-56
2023/04/17 01:11:08;;;;;;;13.88;12.38;;;9.00;99.90;;;;;;4989467;28;20061;-55
2023/04/17 01:13:54;;;;;;;15.32;13.55;;;9.10;99.90;;;;;;4952902;28;20093;-53
2023/04/17 01:16:40;;;;;;;13.73;12.15;;;9.00;99.90;;;;;;4951622;28;20028;-58
2023/04/17 01:19:27;;;;;;;14.60;12.70;;;9.00;99.90;;;;;;4951102;28;20040;-57
2023/04/17 01:22:17;;;;;;;16.40;13.93;;;8.90;99.90;;;;;;4958237;28;20043;-54
2023/04/17 01:25:04;;;;;;;16.80;14.10;;;8.90;99.90;;;;;;4978645;28;20487;-53
2023/04/17 01:27:50;;;;;;;16.60;13.45;;;8.80;99.90;;;;;;4962108;28;20405;-55
2023/04/17 01:30:36;;;;;;;17.83;14.27;;;8.90;99.90;;;;;;4953534;28;20500;-53
2023/04/17 01:33:22;;;;;;;15.95;13.57;;;8.90;99.90;;;;;;4956092;28;20043;-54
2023/04/17 01:36:08;;;;;;;15.70;12.82;;;8.80;99.90;;;;;;4972424;28;20233;-57
2023/04/17 01:38:54;;;;;;;14.77;12.88;;;8.80;99.90;;;;;;4979313;28;20038;-53
2023/04/17 01:41:40;;;;;;;15.55;13.85;;;8.70;99.90;;;;;;4974689;28;20041;-51
2023/04/17 01:44:26;;;;;;;15.82;13.60;;;8.80;99.90;;;;;;4960056;28;20034;-52
2023/04/17 01:47:12;;;;;;;14.30;12.65;;;8.80;99.90;;;;;;4967153;28;20042;-54
2023/04/17 01:49:58;;;;;;;14.18;12.77;;;8.80;99.90;;;;;;4973020;28;20042;-54
2023/04/17 01:52:44;;;;;;;14.82;13.02;;;8.80;99.90;;;;;;4981493;28;20121;-57
2023/04/17 01:55:30;;;;;;;14.77;12.75;;;8.80;99.90;;;;;;4974168;28;20081;-55
2023/04/17 01:58:16;;;;;;;15.32;12.65;;;8.80;99.90;;;;;;4973707;28;20035;-54
2023/04/17 02:01:02;;;;;;;15.52;13.20;;;8.80;99.90;;;;;;4973367;28;20043;-59
2023/04/17 02:03:48;;;;;;;14.50;13.00;;;8.80;99.90;;;;;;4981931;28;20030;-56
2023/04/17 02:06:34;;;;;;;15.50;13.57;;;8.60;99.90;;;;;;4974980;28;20027;-58
2023/04/17 02:09:20;;;;;;;15.60;13.90;;;8.80;99.90;;;;;;4993028;28;20169;-56
2023/04/17 02:12:06;;;;;;;14.18;12.68;;;8.60;99.90;;;;;;4979494;28;20039;-57
2023/04/17 02:14:52;;;;;;;14.98;13.27;;;8.60;99.90;;;;;;4973605;28;20499;-55
2023/04/17 02:17:38;;;;;;;15.43;12.85;;;8.60;99.90;;;;;;4966345;28;20042;-59
2023/04/17 02:20:25;;;;;;;16.63;13.68;;;8.60;99.90;;;;;;4984074;28;20038;-58
2023/04/17 02:23:11;;;;;;;21.58;14.63;;;8.60;99.90;;;;;;4986642;28;20458;-58
2023/04/17 02:25:57;;;;;;;14.35;12.52;;;8.60;99.90;;;;;;4980565;28;20034;-55
2023/04/17 02:28:44;;;;;;;15.18;12.55;;;8.60;99.90;;;;;;4983437;28;20110;-59
2023/04/17 02:31:30;;;;;;;14.85;12.73;;;8.70;99.90;;;;;;4975424;28;20035;-51
2023/04/17 02:34:16;;;;;;;16.30;12.90;;;8.70;99.90;;;;;;4978745;28;20030;-54
2023/04/17 02:37:02;;;;;;;14.27;11.48;;;8.70;99.90;;;;;;4954143;29;20085;-52
2023/04/17 02:39:48;;;;;;;15.88;12.40;;;8.70;99.90;;;;;;4954145;28;20419;-55
2023/04/17 02:42:33;;;;;;;14.65;12.27;;;8.60;99.90;;;;;;4971983;28;20106;-55
2023/04/17 02:45:20;;;;;;;17.02;13.15;;;8.50;99.90;;;;;;4979190;28;20114;-53
2023/04/17 02:48:06;;;;;;;16.70;13.55;;;8.60;99.90;;;;;;4977377;28;20034;-58
2023/04/17 02:50:51;;;;;;;15.10;12.38;;;8.60;99.90;;;;;;4973232;28;20122;-54
2023/04/17 02:53:37;;;;;;;14.85;13.18;;;8.60;99.90;;;;;;4973020;28;20026;-57
2023/04/17 02:56:23;;;;;;;13.93;12.48;;;8.60;99.90;;;;;;4954197;28;20540;-55
2023/04/17 02:59:09;;;;;;;19.25;13.43;;;8.50;99.90;;;;;;4956041;28;20110;-56
2023/04/17 03:01:58;;;;;;;15.20;12.75;;;8.50;99.90;;;;;;4972473;28;20035;-57
2023/04/17 03:04:44;;;;;;;16.90;13.18;;;8.50;99.90;;;;;;4968386;28;20065;-53
2023/04/17 03:07:30;;;;;;;16.08;12.35;;;8.60;99.90;;;;;;4976232;28;20023;-56
2023/04/17 03:10:16;;;;;;;16.88;13.25;;;8.50;99.90;;;;;;4990348;28;20070;-54
2023/04/17 03:13:03;;;;;;;14.85;12.35;;;8.40;99.90;;;;;;4992355;28;20031;-52
2023/04/17 03:15:49;;;;;;;15.75;12.85;;;8.50;99.90;;;;;;4978024;28;20062;-54
2023/04/17 03:18:39;;;;;;;15.65;13.18;;;8.50;99.90;;;;;;4971494;28;20035;-56
2023/04/17 03:21:25;;;;;;;14.43;12.93;;;8.40;99.90;;;;;;4955828;28;20026;-54
2023/04/17 03:24:11;;;;;;;15.45;12.85;;;8.40;99.90;;;;;;4983523;28;20030;-54
2023/04/17 03:26:58;;;;;;;18.00;13.10;;;8.50;99.90;;;;;;4982927;28;20105;-54
2023/04/17 03:29:44;;;;;;;16.23;13.35;;;8.40;99.90;;;;;;4970524;28;20385;-53
2023/04/17 03:32:31;;;;;;;17.45;13.00;;;8.40;99.90;;;;;;4957873;28;20038;-55
2023/04/17 03:35:17;;;;;;;15.88;12.70;;;8.50;99.90;;;;;;4970946;28;20031;-53
2023/04/17 03:38:03;;;;;;;16.20;13.75;;;8.40;99.90;;;;;;4971626;28;20027;-54
2023/04/17 03:40:49;;;;;;;16.75;14.18;;;8.30;99.90;;;;;;4972360;28;20376;-57
2023/04/17 03:43:35;;;;;;;17.23;13.73;;;8.40;99.90;;;;;;4972251;28;20407;-57
2023/04/17 03:46:21;;;;;;;15.10;13.32;;;8.40;99.90;;;;;;4972578;28;20158;-56
2023/04/17 03:49:07;;;;;;;16.75;13.70;;;8.30;99.90;;;;;;4972327;28;20031;-53
2023/04/17 03:51:53;;;;;;;17.65;14.80;;;8.40;99.90;;;;;;4979493;28;20557;-56
2023/04/17 03:54:39;;;;;;;19.75;15.10;;;8.30;99.90;;;;;;4974956;28;20058;-55
2023/04/17 03:57:25;;;;;;;16.65;13.95;;;8.20;99.90;;;;;;4971714;28;20062;-59
2023/04/17 04:00:11;;;;;;;17.48;14.88;;;8.20;99.90;;;;;;4964192;28;20093;-56
2023/04/17 04:02:57;;;;;;;16.30;14.23;;;8.40;99.90;;;;;;4970800;28;20050;-53
2023/04/17 04:05:43;;;;;;;17.77;14.65;;;8.30;99.90;;;;;;4952381;28;20030;-56
2023/04/17 04:08:29;;;;;;;17.10;14.25;;;8.30;99.90;;;;;;4988698;28;20038;-53
2023/04/17 04:11:15;;;;;;;19.98;14.05;;;8.30;99.90;;;;;;4974310;28;20070;-56
2023/04/17 04:14:01;;;;;;;17.02;14.68;;;8.10;99.90;;;;;;4971299;28;20067;-56
2023/04/17 04:16:48;;;;;;;22.08;15.52;;;8.10;99.90;;;;;;4971278;28;20027;-57
2023/04/17 04:19:34;;;;;;;17.58;15.38;;;8.00;99.90;;;;;;4970806;28;20031;-55
2023/04/17 04:22:20;;;;;;;22.33;16.48;;;7.90;99.90;;;;;;4968483;28;20416;-55
2023/04/17 04:25:06;;;;;;;20.17;15.65;;;7.90;99.90;;;;;;4970416;28;20030;-58
2023/04/17 04:27:52;;;;;;;17.90;14.85;;;7.90;99.90;;;;;;4975267;28;20034;-57
2023/04/17 04:30:38;;;;;;;21.42;15.82;;;7.90;99.90;;;;;;4970324;28;20031;-55
2023/04/17 04:33:26;;;;;;;20.05;15.30;;;7.90;99.90;;;;;;4971133;28;20058;-57
2023/04/17 04:36:19;;;;;;;20.83;16.17;;;7.80;99.90;;;;;;4978308;28;20027;-53
2023/04/17 04:39:05;;;;;;;22.02;16.65;;;7.90;99.90;;;;;;4979566;28;20034;-55
2023/04/17 04:41:51;;;;;;;20.13;17.08;;;7.80;99.90;;;;;;4964054;28;20027;-58
2023/04/17 04:44:37;;;;;;;21.52;17.10;;;7.80;99.90;;;;;;4970704;28;20130;-54
2023/04/17 04:47:23;;;;;;;17.60;15.60;;;7.70;99.90;;;;;;4971325;28;20118;-58
2023/04/17 04:50:09;;;;;;;22.65;17.63;;;7.80;99.90;;;;;;4970958;28;20537;-56
2023/04/17 04:52:55;;;;;;;21.02;17.85;;;7.80;99.90;;;;;;4971026;28;20038;-56
2023/04/17 04:55:41;;;;;;;22.77;17.33;;;7.70;99.90;;;;;;4956961;28;20520;-56
2023/04/17 04:58:30;;;;;;;18.25;16.30;;;7.70;99.90;;;;;;4969728;28;20480;-53
2023/04/17 05:01:19;;;;;;;22.27;18.77;;;7.80;99.90;;;;;;4971175;28;20038;-55
2023/04/17 05:04:05;;;;;;;22.85;17.85;;;7.70;99.90;;;;;;4970599;28;20058;-56
2023/04/17 05:06:51;;;;;;;24.52;19.13;;;7.70;99.90;;;;;;4970366;28;20053;-59
2023/04/17 05:09:37;;;;;;;21.38;18.35;;;7.70;99.90;;;;;;4971103;28;20031;-54
2023/04/17 05:12:23;;;;;;;22.08;18.25;;;7.60;99.90;;;;;;4966081;28;20085;-54
2023/04/17 05:15:09;;;;;;;21.75;16.83;;;7.60;99.90;;;;;;4978827;28;20034;-58
2023/04/17 05:17:55;;;;;;;27.08;20.83;;;7.70;99.90;;;;;;4981223;28;20039;-55
2023/04/17 05:20:41;;;;;;;22.85;17.40;;;7.70;99.90;;;;;;4979141;28;20043;-57
2023/04/17 05:23:27;;;;;;;24.17;18.65;;;7.80;99.90;;;;;;4970223;28;20452;-57
2023/04/17 05:26:13;;;;;;;22.20;17.95;;;7.70;99.90;;;;;;4970488;28;20112;-57
2023/04/17 05:29:00;;;;;;;24.70;18.67;;;7.60;99.90;;;;;;4988288;28;20031;-54
2023/04/17 05:31:46;;;;;;;23.77;17.13;;;7.60;99.90;;;;;;4964313;28;20045;-55
2023/04/17 05:34:31;;;;;;;23.63;18.45;;;7.70;99.90;;;;;;4970650;28;20038;-57
2023/04/17 05:37:17;;;;;;;21.90;18.05;;;7.70;99.90;;;;;;4970890;28;20042;-59
2023/04/17 05:40:05;;;;;;;22.38;17.42;;;7.60;99.90;;;;;;4970310;28;20653;-57
2023/04/17 05:42:51;;;;;;;21.63;17.65;;;7.70;99.90;;;;;;4970089;28;20034;-54
2023/04/17 05:45:40;;;;;;;22.33;18.65;;;7.70;99.90;;;;;;4975990;28;20031;-53
2023/04/17 05:48:26;;;;;;;23.23;18.17;;;7.70;99.90;;;;;;4981369;28;20058;-54
2023/04/17 05:51:11;;;;;;;24.02;17.77;;;7.70;99.90;;;;;;4976843;28;20639;-58
2023/04/17 05:53:57;;;;;;;25.83;19.25;;;7.70;99.90;;;;;;4970813;28;20030;-51
2023/04/17 05:56:43;;;;;;;24.73;18.95;;;7.70;99.90;;;;;;4968876;28;20031;-58
2023/04/17 05:59:30;;;;;;;23.48;18.17;;;7.70;99.90;;;;;;4972906;28;20035;-52
2023/04/17 06:02:16;;;;;;;23.17;17.67;;;7.70;99.90;;;;;;4962800;28;20415;-55
2023/04/17 06:05:05;;;;;;;22.52;18.27;;;7.80;99.90;;;;;;4970120;28;20027;-55
2023/04/17 06:07:51;;;;;;;20.45;17.50;;;7.70;99.90;;;;;;4971352;28;20550;-54
2023/04/17 06:10:37;;;;;;;20.20;17.80;;;7.70;99.90;;;;;;4968611;28;20057;-54
2023/04/17 06:13:23;;;;;;;23.17;18.40;;;7.80;99.90;;;;;;4979008;28;20026;-58
2023/04/17 06:16:09;;;;;;;24.10;17.85;;;7.70;99.90;;;;;;4973506;28;20500;-59
2023/04/17 06:18:55;;;;;;;23.45;18.48;;;7.70;99.90;;;;;;4983537;28;20137;-55
2023/04/17 06:21:41;;;;;;;22.75;18.83;;;7.80;99.90;;;;;;4973585;28;20031;-57
2023/04/17 06:24:27;;;;;;;22.60;17.80;;;7.70;99.90;;;;;;4972123;28;20038;-55
2023/04/17 06:27:13;;;;;;;24.08;17.77;;;7.80;99.90;;;;;;4979451;28;20026;-57
2023/04/17 06:29:59;;;;;;;25.38;18.88;;;7.80;99.90;;;;;;4975429;28;20022;-56
2023/04/17 06:32:45;;;;;;;24.58;18.65;;;7.80;99.90;;;;;;4990359;28;20535;-58
2023/04/17 06:35:31;;;;;;;21.30;17.60;;;7.90;99.90;;;;;;4982862;28;20747;-58
2023/04/17 06:38:17;;;;;;;24.70;18.52;;;8.10;99.90;;;;;;4970922;28;20520;-57
2023/04/17 06:41:03;;;;;;;22.00;17.48;;;8.20;99.90;;;;;;4963578;28;20059;-57
2023/04/17 06:43:49;;;;;;;24.67;18.67;;;8.30;99.90;;;;;;4979364;28;20030;-59
2023/04/17 06:46:35;;;;;;;23.42;17.30;;;8.30;99.90;;;;;;4967806;28;20500;-59
2023/04/17 06:49:20;;;;;;;24.52;16.40;;;8.30;99.90;;;;;;4953832;28;20035;-59
2023/04/17 06:52:06;;;;;;;24.10;18.67;;;8.20;99.90;;;;;;4967007;28;20027;-60
2023/04/17 06:54:57;;;;;;;25.17;20.13;;;8.20;99.90;;;;;;4973638;28;20026;-59
2023/04/17 06:57:43;;;;;;;20.63;17.38;;;8.20;99.90;;;;;;4978331;28;20035;-58
2023/04/17 07:00:29;;;;;;;22.50;19.13;;;8.10;99.90;;;;;;4989471;28;20031;-58
2023/04/17 07:03:15;;;;;;;21.25;18.90;;;8.00;99.90;;;;;;4973979;28;20053;-59
2023/04/17 07:06:01;;;;;;;25.80;18.55;;;7.90;99.90;;;;;;4975442;28;20022;-56
2023/04/17 07:08:47;;;;;;;25.33;19.58;;;8.00;99.90;;;;;;4959498;28;20150;-59
2023/04/17 07:11:33;;;;;;;23.38;18.77;;;8.00;99.90;;;;;;4986011;28;20056;-59
2023/04/17 07:14:19;;;;;;;22.90;19.27;;;8.10;99.90;;;;;;4972840;28;20035;-59
2023/04/17 07:17:06;;;;;;;24.52;19.20;;;8.00;99.90;;;;;;4972536;28;20045;-58
2023/04/17 07:19:52;;;;;;;27.95;21.05;;;8.00;99.90;;;;;;4981866;28;20034;-55
2023/04/17 07:22:38;;;;;;;26.88;20.38;;;7.90;99.90;;;;;;4984670;28;20030;-57
2023/04/17 07:25:24;;;;;;;28.58;22.05;;;7.90;99.90;;;;;;4974499;28;20520;-56
2023/04/17 07:28:10;;;;;;;25.25;18.88;;;8.10;99.90;;;;;;4975717;28;20030;-54
2023/04/17 07:30:56;;;;;;;32.13;21.08;;;8.20;99.90;;;;;;4966819;28;20460;-59
2023/04/17 07:33:42;;;;;;;27.30;20.58;;;8.30;99.90;;;;;;4967760;28;20677;-59
2023/04/17 07:36:28;;;;;;;26.98;21.25;;;8.30;99.90;;;;;;4958175;28;20122;-59
2023/04/17 07:39:14;;;;;;;25.75;18.70;;;8.30;99.90;;;;;;4961346;28;20024;-55
2023/04/17 07:42:05;;;;;;;24.85;20.30;;;8.30;99.90;;;;;;4963308;28;20035;-58
2023/04/17 07:44:51;;;;;;;24.88;19.88;;;8.40;99.90;;;;;;4966151;28;20034;-56
2023/04/17 07:47:37;;;;;;;26.83;18.83;;;8.50;99.90;;;;;;4967253;28;20023;-58
2023/04/17 07:50:23;;;;;;;26.13;19.00;;;8.40;99.90;;;;;;4967987;28;20027;-55
2023/04/17 07:53:08;;;;;;;24.20;18.58;;;8.40;99.90;;;;;;4962869;28;20031;-57
2023/04/17 07:55:55;;;;;;;23.77;18.95;;;8.60;99.90;;;;;;4972573;28;20483;-56
2023/04/17 07:58:41;;;;;;;24.05;19.23;;;8.80;99.90;;;;;;4964098;28;20066;-60
2023/04/17 08:01:27;;;;;;;21.85;18.30;;;8.90;99.90;;;;;;4969052;28;20027;-60
2023/04/17 08:04:13;;;;;;;25.65;19.75;;;8.90;99.90;;;;;;4970733;28;20510;-58
2023/04/17 08:06:59;;;;;;;22.63;17.80;;;8.90;99.90;;;;;;4960319;28;20503;-58
2023/04/17 08:09:46;;;;;;;21.80;17.70;;;9.10;99.90;;;;;;4962413;28;20027;-57
2023/04/17 08:12:32;;;;;;;22.17;18.85;;;9.20;99.90;;;;;;4961584;28;20020;-54
2023/04/17 08:15:18;;;;;;;21.30;17.42;;;9.20;99.90;;;;;;4953712;28;20049;-55
2023/04/17 08:18:04;;;;;;;23.70;18.02;;;9.20;99.90;;;;;;4974378;28;20404;-58
2023/04/17 08:20:50;;;;;;;22.65;17.85;;;9.30;99.90;;;;;;4969097;28;20035;-56
2023/04/17 08:23:36;;;;;;;19.42;17.33;;;9.50;99.90;;;;;;4962002;28;20055;-55
2023/04/17 08:26:22;;;;;;;24.38;17.08;;;9.50;99.90;;;;;;4967956;28;20030;-54
2023/04/17 08:29:08;;;;;;;21.05;17.10;;;9.60;99.90;;;;;;4964186;28;20037;-55
2023/04/17 08:31:54;;;;;;;20.48;16.58;;;9.70;99.90;;;;;;4957969;28;21608;-57
2023/04/17 08:34:40;;;;;;;21.25;17.55;;;9.60;99.90;;;;;;4990330;28;20126;-54
2023/04/17 08:37:27;;;;;;;22.55;17.15;;;9.70;99.90;;;;;;4984455;28;20039;-54
2023/04/17 08:40:14;;;;;;;21.55;18.42;;;9.70;99.90;;;;;;4971081;28;20039;-54
2023/04/17 08:43:01;;;;;;;23.85;17.73;;;9.80;99.90;;;;;;4961560;28;20035;-56
2023/04/17 08:45:52;;;;;;;21.17;17.10;;;10.00;99.90;;;;;;4968150;28;20058;-59
2023/04/17 08:48:38;;;;;;;21.70;18.60;;;10.20;99.90;;;;;;4965596;28;20105;-56
2023/04/17 08:51:25;;;;;;;21.25;18.38;;;10.10;99.90;;;;;;4962672;28;20697;-56
2023/04/17 08:54:11;;;;;;;21.33;17.15;;;10.30;99.90;;;;;;4968368;28;20031;-58
2023/04/17 08:57:00;;;;;;;22.33;17.10;;;10.60;99.90;;;;;;4954384;28;20038;-58
2023/04/17 08:59:46;;;;;;;19.90;16.58;;;10.80;99.90;;;;;;4967978;28;20066;-58
2023/04/17 09:02:50;;;;;;;21.77;17.45;;;10.90;99.90;;;;;;4975908;28;20035;-56
2023/04/17 09:05:37;;;;;;;18.67;16.17;;;11.10;99.90;;;;;;4974913;28;20563;-57
2023/04/17 09:08:23;;;;;;;19.73;16.02;;;11.20;99.90;;;;;;4958494;28;20041;-56
2023/04/17 09:11:16;;;;;;;22.50;15.95;;;11.30;99.90;;;;;;4975735;28;20547;-58
2023/04/17 09:14:02;;;;;;;20.52;16.17;;;11.30;99.90;;;;;;4964300;28;20030;-58
2023/04/17 09:16:54;;;;;;;20.27;16.58;;;11.30;99.90;;;;;;4971203;28;20035;-56
2023/04/17 09:20:06;;;;;;;18.75;16.17;;;11.20;99.90;;;;;;4944369;28;20534;-55
2023/04/17 09:23:00;;;;;;;20.85;15.35;;;11.00;99.90;;;;;;4966335;28;20034;-58
2023/04/17 09:26:03;;;;;;;24.35;15.93;;;10.80;99.90;;;;;;4965305;28;20030;-58
2023/04/17 09:29:02;;;;;;;17.73;14.73;;;10.80;99.90;;;;;;4968477;28;20085;-58
2023/04/17 09:31:48;;;;;;;17.88;15.05;;;10.90;99.90;;;;;;4968672;28;20031;-58
2023/04/17 09:34:40;;;;;;;16.10;13.30;;;10.60;99.90;;;;;;4966994;28;20031;-56
2023/04/17 09:37:53;;;;;;;21.88;14.18;;;10.60;99.90;;;;;;4963290;28;20039;-59
2023/04/17 09:40:40;;;;;;;20.40;15.60;;;10.90;99.90;;;;;;4969072;28;20042;-57
2023/04/17 09:43:42;;;;;;;16.55;14.23;;;11.30;99.90;;;;;;4967924;28;20029;-59
2023/04/17 09:46:31;;;;;;;15.50;12.40;;;11.60;99.90;;;;;;4961671;28;20035;-54
2023/04/17 09:49:39;;;;;;;16.63;12.98;;;11.60;99.90;;;;;;4961498;28;20031;-57
2023/04/17 09:52:25;;;;;;;16.23;13.10;;;11.40;99.90;;;;;;4964674;28;20038;-54
2023/04/17 09:55:12;;;;;;;17.60;14.07;;;11.10;99.90;;;;;;4969067;28;20031;-58
2023/04/17 09:58:01;;;;;;;19.80;13.05;;;10.90;99.90;;;;;;4945027;28;20039;-52
2023/04/17 10:00:47;;;;;;;16.42;13.38;;;10.90;99.90;;;;;;4958368;28;20399;-51
2023/04/17 10:03:34;;;;;;;16.45;13.98;;;10.90;99.90;;;;;;4960592;28;20110;-53
2023/04/17 10:06:20;;;;;;;15.88;12.88;;;10.90;99.90;;;;;;4973288;28;20073;-52
2023/04/17 10:09:07;;;;;;;15.70;12.32;;;11.30;99.90;;;;;;4973156;28;20723;-51
2023/04/17 10:11:55;;;;;;;18.27;13.75;;;11.50;99.90;;;;;;4972564;28;20035;-57
2023/04/17 10:14:51;;;;;;;14.43;12.93;;;11.30;99.90;;;;;;4977486;28;20101;-56
2023/04/17 10:17:37;;;;;;;15.75;13.98;;;11.30;99.90;;;;;;4972559;28;20035;-50
2023/04/17 10:20:23;;;;;;;22.52;14.20;;;11.30;99.90;;;;;;4974767;28;20066;-49
2023/04/17 10:23:32;;;;;;;15.68;12.75;;;11.50;99.90;;;;;;4974900;28;20023;-49
2023/04/17 10:26:24;;;;;;;18.42;13.68;;;11.70;99.90;;;;;;4974324;28;20026;-48
2023/04/17 10:29:11;;;;;;;16.45;13.07;;;11.60;99.90;;;;;;4973987;28;20026;-48
2023/04/17 10:32:09;;;;;;;18.13;13.90;;;11.60;99.90;;;;;;4973870;28;20066;-49
2023/04/17 10:35:14;;;;;;;20.00;12.90;;;11.50;99.90;;;;;;4974395;28;20033;-45
2023/04/17 10:38:02;;;;;;;17.17;14.30;;;11.40;99.90;;;;;;4973903;28;20578;-52
2023/04/17 10:40:49;;;;;;;17.88;13.93;;;11.20;99.90;;;;;;4973411;28;20035;-53
2023/04/17 10:43:39;;;;;;;15.98;13.75;;;11.40;99.90;;;;;;4973113;28;20077;-44
2023/04/17 10:46:25;;;;;;;15.45;13.48;;;11.40;99.90;;;;;;4974292;28;20026;-44
2023/04/17 10:49:13;;;;;;;20.42;14.50;;;11.30;99.90;;;;;;4973767;28;20053;-48
2023/04/17 10:51:59;;;;;;;17.58;14.68;;;11.30;99.90;;;;;;4973847;28;20027;-53
2023/04/17 10:55:03;;;;;;;17.48;14.25;;;11.60;99.90;;;;;;4973317;28;20082;-52
2023/04/17 10:58:01;;;;;;;16.13;13.73;;;11.70;99.90;;;;;;4970154;28;20035;-56
2023/04/17 11:00:51;;;;;;;17.02;12.95;;;11.90;99.90;;;;;;4953952;28;20449;-53
2023/04/17 11:03:37;;;;;;;16.95;13.73;;;12.00;99.90;;;;;;4952746;28;20046;-54
2023/04/17 11:06:27;;;;;;;16.77;13.48;;;12.10;99.20;;;;;;4960846;28;20027;-52
2023/04/17 11:09:14;;;;;;;16.55;13.93;;;12.20;99.30;;;;;;4972477;28;20035;-56
2023/04/17 11:12:00;;;;;;;17.88;14.30;;;12.00;99.70;;;;;;4961638;28;20038;-56
2023/04/17 11:14:46;;;;;;;15.25;13.40;;;12.00;99.90;;;;;;4973494;28;20023;-58
2023/04/17 11:17:32;;;;;;;17.38;14.50;;;12.00;99.90;;;;;;4973167;28;20066;-57
2023/04/17 11:20:23;;;;;;;18.92;14.52;;;12.00;99.90;;;;;;4972956;28;20050;-54
2023/04/17 11:23:09;;;;;;;18.83;13.80;;;11.90;99.40;;;;;;4962085;28;20023;-51
2023/04/17 11:25:55;;;;;;;16.27;13.45;;;11.90;99.10;;;;;;4965588;28;20101;-54
2023/04/17 11:28:41;;;;;;;20.38;14.13;;;12.00;99.10;;;;;;4968363;28;20420;-56
2023/04/17 11:31:28;;;;;;;18.52;14.23;;;12.10;99.30;;;;;;4967252;28;20039;-56
2023/04/17 11:34:15;;;;;;;19.27;15.30;;;12.20;99.10;;;;;;4968786;28;20085;-53
2023/04/17 11:37:02;;;;;;;17.38;13.98;;;12.30;99.30;;;;;;4951977;28;20040;-52
2023/04/17 11:39:47;;;;;;;18.55;14.13;;;12.50;99.20;;;;;;4956922;28;20034;-54
2023/04/17 11:42:33;;;;;;;20.35;14.50;;;12.20;99.40;;;;;;4964045;28;20031;-54
2023/04/17 11:45:20;;;;;;;19.40;14.23;;;12.30;99.00;;;;;;4963597;28;20058;-58
2023/04/17 11:48:08;;;;;;;19.13;14.82;;;12.50;98.70;;;;;;4970998;28;20039;-57
2023/04/17 11:51:03;;;;;;;17.05;13.85;;;12.60;98.90;;;;;;4969776;28;20057;-54
2023/04/17 11:53:49;;;;;;;17.02;14.60;;;12.70;99.20;;;;;;4972155;28;20027;-50
2023/04/17 11:56:35;;;;;;;18.95;14.57;;;12.70;98.80;;;;;;4953866;28;20067;-53
2023/04/17 11:59:32;;;;;;;19.30;13.27;;;12.60;98.90;;;;;;4952700;29;20027;-60
2023/04/17 12:02:31;;;;;;;16.90;14.07;;;12.60;98.90;;;;;;4966509;28;20536;-60
2023/04/17 12:05:17;;;;;;;19.33;14.88;;;12.30;98.80;;;;;;4968808;28;20079;-58
2023/04/17 12:08:06;;;;;;;16.45;14.63;;;12.20;99.40;;;;;;4957053;28;20039;-57
2023/04/17 12:10:52;;;;;;;17.27;14.45;;;12.10;99.60;;;;;;4953909;28;20396;-52
2023/04/17 12:13:38;;;;;;;19.75;15.45;;;12.40;99.80;;;;;;4939155;28;20127;-54
2023/04/17 12:16:25;;;;;;;16.58;14.50;;;12.80;98.60;;;;;;4961325;28;20035;-51
2023/04/17 12:19:15;;;;;;;18.45;15.15;;;12.80;98.40;;;;;;4952573;28;20051;-53
2023/04/17 12:22:01;;;;;;;18.67;13.43;;;12.60;98.40;;;;;;4972163;28;20110;-51
2023/04/17 12:24:47;;;;;;;16.95;15.15;;;12.80;99.10;;;;;;4971759;28;20019;-49
2023/04/17 12:27:36;;;;;;;20.48;14.02;;;13.00;98.50;;;;;;4971244;28;20027;-51
2023/04/17 12:30:23;;;;;;;16.23;13.25;;;13.00;97.90;;;;;;4972787;28;20511;-50
2023/04/17 12:33:09;;;;;;;18.15;14.05;;;12.70;97.50;;;;;;4979522;28;20450;-56
2023/04/17 12:35:55;;;;;;;16.00;13.10;;;12.60;98.50;;;;;;4971175;28;20105;-55
2023/04/17 12:38:41;;;;;;;26.50;18.77;;;12.90;97.80;;;;;;4972165;28;20027;-50
2023/04/17 12:41:29;;;;;;;22.60;18.65;;;13.30;97.60;;;;;;4972127;28;20033;-55
2023/04/17 12:44:14;;;;;;;18.80;14.30;;;13.60;97.20;;;;;;4973360;28;20496;-53
2023/04/17 12:47:00;;;;;;;15.05;12.52;;;13.90;96.90;;;;;;4966283;28;20595;-48
2023/04/17 12:49:46;;;;;;;20.20;12.85;;;14.10;96.30;;;;;;4971555;28;20066;-50
2023/04/17 12:52:32;;;;;;;13.60;12.18;;;14.00;96.00;;;;;;4963272;28;20027;-53
2023/04/17 12:55:19;;;;;;;17.00;13.23;;;14.10;94.50;;;;;;4951623;28;20031;-49
2023/04/17 12:58:06;;;;;;;15.13;12.35;;;13.90;94.40;;;;;;4957766;28;20435;-50
2023/04/17 13:00:52;;;;;;;13.93;11.77;;;14.00;95.00;;;;;;4971796;28;20095;-53
2023/04/17 13:03:38;;;;;;;14.98;12.45;;;14.00;95.00;;;;;;4954506;28;20035;-54
2023/04/17 13:06:24;;;;;;;15.55;12.32;;;14.30;95.20;;;;;;4951719;29;20716;-48
2023/04/17 13:09:10;;;;;;;15.35;12.07;;;14.40;94.50;;;;;;4952930;28;20190;-51
2023/04/17 13:11:56;;;;;;;13.43;11.85;;;14.70;93.90;;;;;;4952083;29;20138;-47
2023/04/17 13:14:42;;;;;;;15.30;11.48;;;14.70;93.70;;;;;;4952152;28;20059;-46
2023/04/17 13:17:28;;;;;;;13.48;11.05;;;14.10;93.20;;;;;;4959606;28;20074;-50
2023/04/17 13:20:17;;;;;;;14.73;11.82;;;14.20;93.40;;;;;;4960787;28;20568;-54
2023/04/17 13:23:03;;;;;;;14.38;11.85;;;14.00;93.60;;;;;;4970842;28;20062;-65
2023/04/17 13:25:49;;;;;;;12.98;11.02;;;13.90;92.90;;;;;;4973419;28;20026;-54
2023/04/17 13:28:35;;;;;;;13.27;10.65;;;14.00;93.50;;;;;;4974894;28;20035;-56
2023/04/17 13:31:23;;;;;;;17.13;12.48;;;14.00;94.10;;;;;;4974782;28;20050;-51
2023/04/17 13:34:10;;;;;;;17.80;11.57;;;13.90;93.50;;;;;;4959832;28;20535;-50
2023/04/17 13:36:56;;;;;;;14.85;11.45;;;13.60;93.70;;;;;;4960937;28;20039;-53
2023/04/17 13:39:42;;;;;;;15.52;12.00;;;13.40;94.60;;;;;;4976010;28;20037;-53
2023/04/17 13:42:28;;;;;;;16.23;12.85;;;13.30;94.60;;;;;;4975080;28;20031;-54
2023/04/17 13:45:14;;;;;;;16.38;13.18;;;13.60;94.90;;;;;;4974693;28;20030;-53
2023/04/17 13:48:00;;;;;;;16.67;13.00;;;14.00;94.80;;;;;;4956220;28;20082;-53
2023/04/17 13:50:46;;;;;;;22.92;13.48;;;14.30;94.30;;;;;;4972459;28;20023;-49
2023/04/17 13:53:32;;;;;;;13.68;12.23;;;14.60;94.20;;;;;;4978411;28;20026;-53
2023/04/17 13:56:22;;;;;;;18.10;12.15;;;14.90;93.60;;;;;;4973605;28;20031;-51
2023/04/17 13:59:09;;;;;;;17.48;12.73;;;15.10;93.10;;;;;;4954830;28;20031;-52
2023/04/17 14:01:55;;;;;;;14.80;11.65;;;15.30;92.50;;;;;;4955189;28;20496;-52
2023/04/17 14:04:40;;;;;;;17.50;13.38;;;15.70;92.50;;;;;;4969358;28;20042;-50
2023/04/17 14:07:27;;;;;;;13.02;11.15;;;15.50;92.00;;;;;;4974391;28;20031;-53
2023/04/17 14:10:13;;;;;;;16.50;12.32;;;14.70;92.10;;;;;;4974407;28;20033;-51
2023/04/17 14:12:59;;;;;;;15.55;12.48;;;14.40;93.10;;;;;;4973991;28;20526;-50
2023/04/17 14:15:46;;;;;;;17.02;12.40;;;14.50;93.00;;;;;;4955736;28;20097;-51